« Back
NWS Peachtree City, Ga » Text Product » CSG Terminal Aerodrome Forecast


Printer-friendly Version
Current Version              Previous Versions:   1  2  3  4  5  6  7  8  9  

Terminal Aerodrome Forecast

854
FTUS42 KFFC 041731
TAFCSG
TAF
KCSG 041731Z 0418/0518 20010KT P6SM BKN025
     FM042000 21008KT P6SM BKN040
     FM050200 21006KT P6SM BKN025
     FM050600 21007KT P6SM BKN007
     FM051000 21006KT 4SM -RA BR BKN005
     FM051700 31008KT 6SM -RA BR OVC008=

USA.gov is the U.S. government's official web portal to all federal, state and local government web resources and services.